Time;durP1;ratioP1;P1;durP2;ratioP2;P2;SDS_P1;SDS_P2;PMS_P1;PMS_P2;Temp;Humidity;BMP_temperature;BMP_pressure;BME280_temperature;BME280_humidity;BME280_pressure;Samples;Min_cycle;Max_cycle;Signal;HPM_P1;HPM_P2
2021/12/09 00:00:31;;;;;;;12.40;4.82;;;1.90;99.90;;;;;;5035691;28;20041;-79
2021/12/09 00:02:57;;;;;;;7.55;4.38;;;1.90;99.90;;;;;;5035567;28;20127;-79
2021/12/09 00:05:23;;;;;;;7.72;4.38;;;1.80;99.90;;;;;;5019333;28;20442;-79
2021/12/09 00:07:52;;;;;;;13.70;5.03;;;1.80;99.90;;;;;;5036508;28;20094;-79
2021/12/09 00:10:18;;;;;;;13.80;5.22;;;1.80;99.90;;;;;;5019663;28;20549;-79
2021/12/09 00:12:44;;;;;;;10.00;4.85;;;1.80;99.90;;;;;;5035894;28;20060;-79
2021/12/09 00:15:11;;;;;;;12.73;5.63;;;1.70;99.90;;;;;;5018977;28;20044;-79
2021/12/09 00:17:36;;;;;;;14.75;5.25;;;1.70;99.90;;;;;;5018047;28;20048;-79
2021/12/09 00:20:04;;;;;;;9.88;5.35;;;1.70;99.90;;;;;;5034358;28;20037;-79
2021/12/09 00:22:29;;;;;;;12.70;4.85;;;1.70;99.90;;;;;;5034189;28;20068;-79
2021/12/09 00:24:55;;;;;;;13.55;5.15;;;1.70;99.90;;;;;;5036514;28;20037;-80
2021/12/09 00:27:21;;;;;;;10.15;5.20;;;1.70;99.90;;;;;;5038806;28;20072;-80
2021/12/09 00:29:46;;;;;;;10.70;4.90;;;1.60;99.90;;;;;;5021654;28;20511;-79
2021/12/09 00:32:12;;;;;;;10.73;5.38;;;1.60;99.90;;;;;;5056729;28;20033;-80
2021/12/09 00:34:41;;;;;;;9.55;5.97;;;1.50;99.90;;;;;;5056757;28;20041;-79
2021/12/09 00:37:18;;;;;;;14.65;5.00;;;1.50;99.90;;;;;;5056924;28;20079;-80
2021/12/09 00:39:49;;;;;;;13.65;4.95;;;1.40;99.90;;;;;;5056832;28;20041;-80
2021/12/09 00:42:15;;;;;;;15.65;5.45;;;1.40;99.90;;;;;;5038681;28;20434;-79
2021/12/09 00:44:41;;;;;;;10.68;5.38;;;1.40;99.90;;;;;;5038834;28;20083;-79
2021/12/09 00:47:06;;;;;;;14.05;6.20;;;1.30;99.90;;;;;;5022353;28;20061;-79
2021/12/09 00:49:32;;;;;;;12.50;5.30;;;1.40;99.90;;;;;;5022109;28;20396;-80
2021/12/09 00:51:58;;;;;;;14.68;5.90;;;1.40;99.90;;;;;;5039292;28;20068;-80
2021/12/09 00:54:24;;;;;;;11.35;6.18;;;1.30;99.90;;;;;;5041346;28;20045;-83
2021/12/09 00:56:50;;;;;;;14.85;5.93;;;1.30;99.90;;;;;;5043291;28;20044;-83
2021/12/09 00:59:16;;;;;;;10.73;5.68;;;1.30;99.90;;;;;;5043608;28;20182;-83
2021/12/09 01:01:42;;;;;;;9.13;5.32;;;1.30;99.90;;;;;;5042857;28;20040;-83
2021/12/09 01:04:07;;;;;;;11.23;5.32;;;1.30;99.90;;;;;;5026828;28;20131;-83
2021/12/09 01:06:33;;;;;;;10.05;5.90;;;1.30;99.90;;;;;;5042817;28;20041;-83
2021/12/09 01:08:59;;;;;;;12.30;6.07;;;1.30;99.90;;;;;;5060449;28;20140;-83
2021/12/09 01:11:24;;;;;;;9.75;5.60;;;1.30;99.90;;;;;;5043242;28;20077;-84
2021/12/09 01:13:50;;;;;;;14.55;6.22;;;1.40;99.90;;;;;;5025486;28;20131;-84
2021/12/09 01:16:15;;;;;;;15.00;5.85;;;1.40;99.90;;;;;;5041736;28;20048;-83
2021/12/09 01:18:41;;;;;;;9.25;5.47;;;1.40;99.90;;;;;;5041585;28;20053;-82
2021/12/09 01:21:08;;;;;;;13.00;5.95;;;1.40;99.90;;;;;;5025908;28;20049;-83
2021/12/09 01:23:33;;;;;;;16.20;5.53;;;1.40;99.90;;;;;;5042637;28;20048;-83
2021/12/09 01:26:02;;;;;;;13.70;6.40;;;1.40;99.90;;;;;;5023112;28;20045;-84
2021/12/09 01:28:32;;;;;;;12.30;6.15;;;1.40;99.90;;;;;;5037441;28;20043;-84
2021/12/09 01:31:02;;;;;;;12.25;5.55;;;1.40;99.90;;;;;;5037483;28;20044;-83
2021/12/09 01:33:33;;;;;;;12.15;5.57;;;1.50;99.90;;;;;;5021012;28;20045;-84
2021/12/09 01:35:59;;;;;;;12.43;5.80;;;1.50;99.90;;;;;;5036751;28;20119;-84
2021/12/09 01:38:28;;;;;;;12.02;5.60;;;1.50;99.90;;;;;;5038059;28;20040;-84
2021/12/09 01:40:55;;;;;;;9.80;5.18;;;1.50;99.90;;;;;;5037364;28;20033;-84
2021/12/09 01:43:21;;;;;;;12.63;5.25;;;1.40;99.90;;;;;;5037425;28;20041;-84
2021/12/09 01:45:47;;;;;;;19.55;5.65;;;1.40;99.90;;;;;;5036688;28;20077;-84
2021/12/09 01:48:13;;;;;;;15.77;5.80;;;1.40;99.90;;;;;;5036825;28;20131;-84
2021/12/09 01:50:39;;;;;;;13.60;5.80;;;1.40;99.90;;;;;;5036764;28;20523;-84
2021/12/09 01:53:07;;;;;;;10.13;5.45;;;1.40;99.90;;;;;;5036779;28;20075;-84
2021/12/09 01:55:33;;;;;;;9.52;5.55;;;1.40;99.90;;;;;;5020369;28;20484;-84
2021/12/09 01:58:00;;;;;;;12.15;6.15;;;1.40;99.90;;;;;;5020514;28;20095;-84
2021/12/09 02:00:29;;;;;;;14.65;5.97;;;1.40;99.90;;;;;;5020156;28;20083;-84
2021/12/09 02:02:55;;;;;;;13.38;6.68;;;1.40;99.90;;;;;;5036836;28;20144;-84
2021/12/09 02:05:22;;;;;;;14.95;5.40;;;1.40;99.90;;;;;;5036939;28;20099;-84
2021/12/09 02:07:48;;;;;;;10.65;5.70;;;1.30;99.90;;;;;;5036435;28;20033;-84
2021/12/09 02:10:17;;;;;;;10.27;5.65;;;1.40;99.90;;;;;;5019910;28;20048;-84
2021/12/09 02:12:45;;;;;;;13.40;6.40;;;1.30;99.90;;;;;;5036687;28;20029;-84
2021/12/09 02:15:10;;;;;;;14.30;6.20;;;1.30;99.90;;;;;;5037355;28;20056;-84
2021/12/09 02:17:36;;;;;;;12.75;6.32;;;1.30;99.90;;;;;;5036978;28;20048;-84
2021/12/09 02:20:06;;;;;;;14.18;5.60;;;1.20;99.90;;;;;;5019936;28;20033;-84
2021/12/09 02:22:31;;;;;;;11.32;6.10;;;1.20;99.90;;;;;;5036574;28;20454;-82
2021/12/09 02:24:58;;;;;;;17.65;6.97;;;1.10;99.90;;;;;;5037684;28;20056;-81
2021/12/09 02:27:25;;;;;;;11.05;5.72;;;1.10;99.90;;;;;;5025083;28;20033;-82
2021/12/09 02:29:55;;;;;;;13.18;6.32;;;1.10;99.90;;;;;;5039640;28;20060;-81
2021/12/09 02:32:22;;;;;;;17.15;6.43;;;1.10;99.90;;;;;;5024701;28;20049;-81
2021/12/09 02:34:48;;;;;;;14.93;5.97;;;1.10;99.90;;;;;;5040413;28;20037;-82
2021/12/09 02:37:14;;;;;;;14.77;6.50;;;1.00;99.90;;;;;;5023546;28;20063;-82
2021/12/09 02:39:41;;;;;;;15.73;5.35;;;1.00;99.90;;;;;;5040118;28;20045;-82
2021/12/09 02:42:07;;;;;;;14.57;5.72;;;1.00;99.90;;;;;;5040613;28;20045;-82
2021/12/09 02:44:32;;;;;;;12.05;5.85;;;1.00;99.90;;;;;;5040857;28;20044;-81
2021/12/09 02:46:58;;;;;;;11.27;5.38;;;1.00;99.90;;;;;;5040029;28;20045;-84
2021/12/09 02:49:26;;;;;;;11.80;6.05;;;0.90;99.90;;;;;;5038947;28;20037;-84
2021/12/09 02:51:53;;;;;;;14.98;6.93;;;0.90;99.90;;;;;;5022384;28;20060;-84
2021/12/09 02:54:21;;;;;;;14.10;7.53;;;0.90;99.90;;;;;;5039750;28;20063;-84
2021/12/09 02:56:49;;;;;;;16.45;6.40;;;0.90;99.90;;;;;;5039363;28;20395;-84
2021/12/09 02:59:15;;;;;;;14.13;5.95;;;0.90;99.90;;;;;;5038752;28;20098;-84
2021/12/09 03:01:56;;;;;;;13.05;5.95;;;0.90;99.90;;;;;;5039512;28;20079;-83
2021/12/09 03:04:22;;;;;;;17.13;6.72;;;0.90;99.90;;;;;;5040996;28;20052;-83
2021/12/09 03:06:50;;;;;;;19.25;6.55;;;0.90;99.90;;;;;;5024819;28;20041;-83
2021/12/09 03:09:18;;;;;;;11.55;5.45;;;0.90;99.90;;;;;;5040944;28;20127;-83
2021/12/09 03:11:52;;;;;;;11.60;6.78;;;0.80;99.90;;;;;;5047105;28;20519;-83
2021/12/09 03:14:18;;;;;;;13.18;5.95;;;0.80;99.90;;;;;;5049246;28;20048;-83
2021/12/09 03:16:44;;;;;;;17.95;6.25;;;0.80;99.90;;;;;;5032224;28;20037;-83
2021/12/09 03:19:10;;;;;;;19.52;7.95;;;0.80;99.90;;;;;;5048865;28;20384;-83
2021/12/09 03:21:43;;;;;;;21.02;6.80;;;0.80;99.90;;;;;;5046888;28;20116;-83
2021/12/09 03:24:12;;;;;;;17.23;6.97;;;0.80;99.90;;;;;;5048679;28;20044;-83
2021/12/09 03:26:42;;;;;;;19.40;8.05;;;0.80;99.90;;;;;;5047356;28;20052;-81
2021/12/09 03:29:11;;;;;;;11.30;6.93;;;0.80;99.90;;;;;;5049521;28;20045;-81
2021/12/09 03:31:38;;;;;;;16.10;7.13;;;0.80;99.90;;;;;;5049676;28;20053;-81
2021/12/09 03:34:04;;;;;;;17.00;7.32;;;0.80;99.90;;;;;;5047964;28;20041;-81
2021/12/09 03:36:30;;;;;;;13.95;7.00;;;0.90;99.90;;;;;;5049186;28;20040;-81
2021/12/09 03:38:58;;;;;;;20.90;7.78;;;0.80;99.90;;;;;;5032767;28;20037;-81
2021/12/09 03:41:24;;;;;;;14.30;6.57;;;0.70;99.90;;;;;;5049101;28;20048;-81
2021/12/09 03:43:50;;;;;;;18.45;7.45;;;0.70;99.90;;;;;;5048653;28;20045;-80
2021/12/09 03:46:16;;;;;;;17.38;6.55;;;0.70;99.90;;;;;;5033466;28;20123;-80
2021/12/09 03:48:41;;;;;;;12.23;6.53;;;0.70;99.90;;;;;;5048973;28;20048;-80
2021/12/09 03:51:07;;;;;;;16.77;7.10;;;0.70;99.90;;;;;;5032362;28;20112;-80
2021/12/09 03:53:33;;;;;;;14.65;7.10;;;0.60;99.90;;;;;;5032712;28;20124;-80
2021/12/09 03:55:59;;;;;;;13.55;7.55;;;0.60;99.90;;;;;;5031218;28;20097;-80
2021/12/09 03:58:24;;;;;;;19.42;8.02;;;0.70;99.90;;;;;;5037600;28;20059;-78
2021/12/09 04:00:51;;;;;;;13.02;6.85;;;0.60;99.90;;;;;;5033267;28;20037;-78
2021/12/09 04:03:18;;;;;;;14.23;7.45;;;0.70;99.90;;;;;;5034054;28;20068;-78
2021/12/09 04:05:45;;;;;;;21.50;7.70;;;0.70;99.90;;;;;;5034176;28;20094;-78
2021/12/09 04:08:11;;;;;;;14.88;7.43;;;0.70;99.90;;;;;;5034143;28;20095;-78
2021/12/09 04:10:37;;;;;;;15.25;7.55;;;0.70;99.90;;;;;;5033614;28;20530;-78
2021/12/09 04:13:03;;;;;;;19.48;8.32;;;0.70;99.90;;;;;;5033679;28;20129;-78
2021/12/09 04:15:29;;;;;;;13.20;7.65;;;0.70;99.90;;;;;;5033757;28;20037;-78
2021/12/09 04:17:55;;;;;;;13.52;7.40;;;0.70;99.90;;;;;;5033794;28;20052;-78
2021/12/09 04:20:21;;;;;;;15.77;8.00;;;0.70;99.90;;;;;;5035749;28;20030;-82
2021/12/09 04:22:49;;;;;;;16.58;8.07;;;0.70;99.90;;;;;;5039118;28;20037;-81
2021/12/09 04:25:17;;;;;;;14.27;8.20;;;0.70;99.90;;;;;;5040539;28;20071;-83
2021/12/09 04:27:43;;;;;;;13.20;7.45;;;0.70;99.90;;;;;;5040382;28;20033;-81
2021/12/09 04:30:09;;;;;;;14.23;6.95;;;0.70;99.90;;;;;;5040178;28;20087;-81
2021/12/09 04:32:35;;;;;;;11.63;7.40;;;0.70;99.90;;;;;;5040103;28;20040;-82
2021/12/09 04:35:00;;;;;;;15.90;8.35;;;0.70;99.90;;;;;;5023857;28;20110;-82
2021/12/09 04:37:26;;;;;;;18.33;7.60;;;0.70;99.90;;;;;;5039267;28;20033;-82
2021/12/09 04:39:52;;;;;;;12.80;6.80;;;0.70;99.90;;;;;;5039839;28;20076;-82
2021/12/09 04:42:18;;;;;;;15.25;7.00;;;0.70;99.90;;;;;;5046752;28;20146;-80
2021/12/09 04:44:44;;;;;;;16.92;7.72;;;0.70;99.90;;;;;;5030639;28;20044;-80
2021/12/09 04:47:10;;;;;;;14.02;7.70;;;0.70;99.90;;;;;;5046996;28;20063;-80
2021/12/09 04:49:36;;;;;;;20.13;8.35;;;0.70;99.90;;;;;;5046072;28;20037;-80
2021/12/09 04:52:04;;;;;;;11.32;6.57;;;0.70;99.90;;;;;;5054972;28;20055;-80
2021/12/09 04:54:29;;;;;;;16.08;7.10;;;0.60;99.90;;;;;;5059068;28;20047;-80
2021/12/09 04:56:55;;;;;;;14.68;7.40;;;0.60;99.90;;;;;;5042054;28;20029;-82
2021/12/09 04:59:21;;;;;;;13.43;7.72;;;0.60;99.90;;;;;;5047893;28;20071;-83
2021/12/09 05:01:49;;;;;;;21.67;8.18;;;0.60;99.90;;;;;;5046622;28;20100;-82
2021/12/09 05:04:16;;;;;;;17.85;7.95;;;0.60;99.90;;;;;;5027327;28;20072;-83
2021/12/09 05:06:41;;;;;;;17.50;7.80;;;0.60;99.90;;;;;;5047218;28;20044;-83
2021/12/09 05:09:11;;;;;;;21.05;7.93;;;0.60;99.90;;;;;;5023359;28;20408;-83
2021/12/09 05:14:04;;;;;;;20.02;8.27;;;0.60;99.90;;;;;;5043205;28;20071;-83
2021/12/09 05:16:31;;;;;;;12.50;7.72;;;0.60;99.90;;;;;;5027018;28;20049;-83
2021/12/09 05:18:59;;;;;;;16.38;7.43;;;0.50;99.90;;;;;;5043967;28;20041;-83
2021/12/09 05:21:35;;;;;;;16.42;7.63;;;0.60;99.90;;;;;;5045219;28;20040;-83
2021/12/09 05:24:01;;;;;;;16.75;7.15;;;0.60;99.90;;;;;;5044673;28;20080;-83
2021/12/09 05:26:32;;;;;;;16.23;7.15;;;0.50;99.90;;;;;;5044092;28;20045;-83
2021/12/09 05:28:58;;;;;;;21.08;7.88;;;0.50;99.90;;;;;;5043719;28;20077;-83
2021/12/09 05:34:10;;;;;;;21.10;7.55;;;0.60;99.90;;;;;;5043392;28;20053;-83
2021/12/09 05:36:36;;;;;;;18.90;7.68;;;0.60;99.90;;;;;;5042287;28;20128;-83
2021/12/09 05:39:04;;;;;;;13.85;7.25;;;0.60;99.90;;;;;;5026510;28;20033;-83
2021/12/09 05:41:31;;;;;;;24.20;8.23;;;0.60;99.90;;;;;;5043566;28;20517;-83
2021/12/09 05:43:56;;;;;;;17.92;7.60;;;0.60;99.90;;;;;;5043882;28;20119;-83
2021/12/09 05:46:22;;;;;;;13.60;7.32;;;0.60;99.90;;;;;;5043559;28;20075;-83
2021/12/09 05:48:49;;;;;;;13.50;6.75;;;0.50;99.90;;;;;;5026835;28;20415;-83
2021/12/09 05:51:15;;;;;;;14.90;7.60;;;0.50;99.90;;;;;;5043209;28;20150;-84
2021/12/09 05:53:40;;;;;;;21.58;8.20;;;0.50;99.90;;;;;;5027745;28;20072;-83
2021/12/09 05:56:06;;;;;;;18.60;7.03;;;0.50;99.90;;;;;;5025286;28;20167;-83
2021/12/09 05:58:32;;;;;;;16.48;9.07;;;0.60;99.90;;;;;;5042654;28;20036;-84
2021/12/09 06:00:57;;;;;;;15.15;8.00;;;0.50;99.90;;;;;;5043426;28;20096;-85
2021/12/09 06:03:23;;;;;;;17.58;7.38;;;0.50;99.90;;;;;;5022553;28;20130;-85
2021/12/09 06:05:50;;;;;;;16.35;7.90;;;0.50;99.90;;;;;;5021584;28;20399;-84
2021/12/09 06:08:17;;;;;;;17.08;8.98;;;0.50;99.90;;;;;;5038073;28;20036;-85
2021/12/09 06:10:42;;;;;;;17.48;7.85;;;0.50;99.90;;;;;;5037157;28;20124;-84
2021/12/09 06:13:08;;;;;;;18.08;7.68;;;0.50;99.90;;;;;;5036840;28;20552;-84
2021/12/09 06:15:34;;;;;;;16.58;7.18;;;0.60;99.90;;;;;;5020777;28;20049;-84
2021/12/09 06:17:59;;;;;;;17.30;7.32;;;0.50;99.90;;;;;;5020804;28;20033;-84
2021/12/09 06:20:26;;;;;;;15.65;7.75;;;0.50;99.90;;;;;;5022232;28;20260;-84
2021/12/09 06:22:52;;;;;;;15.25;8.32;;;0.50;99.90;;;;;;5039516;28;20040;-83
2021/12/09 06:25:19;;;;;;;26.08;11.93;;;0.50;99.90;;;;;;5021631;28;20071;-84
2021/12/09 06:27:48;;;;;;;20.35;7.93;;;0.50;99.90;;;;;;5021914;28;20044;-83
2021/12/09 06:30:15;;;;;;;13.80;6.50;;;0.50;99.90;;;;;;5021872;28;20041;-83
2021/12/09 06:32:42;;;;;;;17.27;7.55;;;0.40;99.90;;;;;;5020079;28;20041;-83
2021/12/09 06:35:08;;;;;;;20.50;7.20;;;0.40;99.90;;;;;;5020322;28;20041;-83
2021/12/09 06:37:38;;;;;;;16.73;7.63;;;0.40;99.90;;;;;;5036098;28;20098;-84
2021/12/09 06:40:05;;;;;;;18.98;7.05;;;0.40;99.90;;;;;;5036700;28;20511;-84
2021/12/09 06:42:31;;;;;;;16.23;7.97;;;0.30;99.90;;;;;;5020752;28;20041;-84
2021/12/09 06:44:57;;;;;;;13.88;7.72;;;0.30;99.90;;;;;;5036887;28;20033;-84
2021/12/09 06:47:22;;;;;;;13.82;8.10;;;0.30;99.90;;;;;;5018191;28;20039;-84
2021/12/09 06:49:48;;;;;;;18.92;7.38;;;0.40;99.90;;;;;;5033956;28;20040;-82
2021/12/09 06:52:14;;;;;;;13.98;7.03;;;0.40;99.90;;;;;;5034696;28;20045;-81
2021/12/09 06:54:40;;;;;;;14.45;7.75;;;0.30;99.90;;;;;;5018733;28;20146;-81
2021/12/09 06:57:05;;;;;;;16.05;7.60;;;0.30;99.90;;;;;;5018271;28;20041;-81
2021/12/09 06:59:31;;;;;;;17.23;7.93;;;0.40;99.90;;;;;;5035166;28;20045;-81
2021/12/09 07:01:56;;;;;;;20.45;7.30;;;0.40;99.90;;;;;;5035229;28;20048;-82
2021/12/09 07:04:22;;;;;;;29.45;7.57;;;0.40;99.90;;;;;;5019083;28;20095;-84
2021/12/09 07:06:48;;;;;;;20.95;7.18;;;0.50;99.90;;;;;;5036018;28;20049;-84
2021/12/09 07:09:14;;;;;;;21.27;6.85;;;0.40;99.90;;;;;;5018799;28;20032;-84
2021/12/09 07:11:44;;;;;;;17.77;7.47;;;0.50;99.90;;;;;;5035671;28;20045;-84
2021/12/09 07:14:09;;;;;;;18.33;7.03;;;0.50;99.90;;;;;;5035182;28;20201;-84
2021/12/09 07:16:35;;;;;;;14.32;6.55;;;0.50;99.90;;;;;;5035040;28;20056;-84
2021/12/09 07:19:00;;;;;;;18.20;6.68;;;0.50;99.90;;;;;;5034987;28;20028;-84
2021/12/09 07:21:26;;;;;;;12.32;7.28;;;0.50;99.90;;;;;;5019351;28;20041;-79
2021/12/09 07:23:52;;;;;;;19.42;8.02;;;0.50;99.90;;;;;;5037159;28;20430;-82
2021/12/09 07:26:17;;;;;;;16.13;6.97;;;0.40;99.90;;;;;;5020096;28;20407;-81
2021/12/09 07:28:44;;;;;;;15.57;7.22;;;0.40;99.90;;;;;;5020586;28;20114;-82
2021/12/09 07:31:09;;;;;;;15.13;7.30;;;0.40;99.90;;;;;;5020418;28;20057;-82
2021/12/09 07:33:35;;;;;;;14.80;7.20;;;0.40;99.90;;;;;;5037720;28;20143;-82
2021/12/09 07:36:00;;;;;;;17.38;6.75;;;0.40;99.90;;;;;;5036389;28;20045;-82
2021/12/09 07:38:26;;;;;;;17.70;7.25;;;0.40;99.90;;;;;;5036389;28;20072;-82
2021/12/09 07:40:52;;;;;;;12.02;6.82;;;0.40;99.90;;;;;;5020961;28;20045;-82
2021/12/09 07:43:17;;;;;;;16.52;7.32;;;0.30;99.90;;;;;;5037575;28;20130;-80
2021/12/09 07:45:43;;;;;;;15.80;7.03;;;0.40;99.90;;;;;;5041597;28;20120;-83
2021/12/09 07:48:09;;;;;;;17.02;7.68;;;0.40;99.90;;;;;;5024232;28;20037;-83
2021/12/09 07:50:35;;;;;;;16.25;7.07;;;0.30;99.90;;;;;;5041365;28;20385;-83
2021/12/09 07:53:01;;;;;;;21.17;8.20;;;0.30;99.90;;;;;;5024089;28;20040;-83
2021/12/09 07:55:27;;;;;;;14.52;6.57;;;0.30;99.90;;;;;;5046717;28;20041;-80
2021/12/09 07:57:53;;;;;;;17.20;6.25;;;0.30;99.90;;;;;;5048067;28;20045;-80
2021/12/09 08:00:26;;;;;;;15.48;6.82;;;0.40;99.90;;;;;;5046194;28;20059;-80
2021/12/09 08:02:53;;;;;;;20.25;7.28;;;0.30;99.90;;;;;;5030664;28;20048;-80
2021/12/09 08:05:20;;;;;;;20.73;8.02;;;0.30;99.90;;;;;;5046995;28;20044;-80
2021/12/09 08:07:46;;;;;;;19.33;6.88;;;0.30;99.90;;;;;;5030743;28;20068;-80
2021/12/09 08:10:15;;;;;;;16.48;8.10;;;0.40;99.90;;;;;;5048414;28;20049;-80
2021/12/09 08:12:41;;;;;;;19.73;7.70;;;0.40;99.90;;;;;;5032341;28;20072;-80
2021/12/09 08:15:09;;;;;;;15.27;7.63;;;0.40;99.90;;;;;;5030724;28;20122;-80
2021/12/09 08:20:16;;;;;;;18.77;7.20;;;0.50;99.90;;;;;;5047667;28;20045;-80
2021/12/09 08:22:43;;;;;;;13.68;6.70;;;0.60;99.90;;;;;;5047990;28;20037;-80
2021/12/09 08:25:13;;;;;;;13.45;6.85;;;0.60;99.90;;;;;;5046713;28;20048;-80
2021/12/09 08:27:42;;;;;;;16.90;6.85;;;0.60;99.90;;;;;;5030857;28;20076;-80
2021/12/09 08:30:12;;;;;;;20.52;8.32;;;0.70;99.90;;;;;;5047248;28;20403;-80
2021/12/09 08:32:38;;;;;;;14.75;6.85;;;0.80;99.90;;;;;;5047069;28;20048;-80
2021/12/09 08:35:04;;;;;;;16.80;7.13;;;0.80;99.90;;;;;;5030756;28;20037;-80
2021/12/09 08:37:30;;;;;;;13.35;6.85;;;0.90;99.90;;;;;;5047130;28;20041;-80
2021/12/09 08:39:56;;;;;;;16.20;6.57;;;0.90;99.90;;;;;;5029065;28;20048;-80
2021/12/09 08:42:24;;;;;;;18.85;6.93;;;0.90;99.90;;;;;;5042461;28;20090;-80
2021/12/09 08:44:50;;;;;;;18.13;7.45;;;1.00;99.90;;;;;;5027415;28;20045;-80
2021/12/09 08:47:16;;;;;;;18.10;6.88;;;1.10;99.90;;;;;;5047901;28;20033;-80
2021/12/09 08:49:41;;;;;;;15.60;6.47;;;1.30;99.90;;;;;;5032473;28;20480;-79
2021/12/09 08:52:07;;;;;;;13.98;6.95;;;1.40;99.90;;;;;;5048617;28;20405;-80
2021/12/09 08:54:33;;;;;;;16.55;5.90;;;1.50;99.90;;;;;;5033510;28;20068;-80
2021/12/09 08:56:59;;;;;;;27.42;8.73;;;1.60;99.90;;;;;;5047351;28;20081;-80
2021/12/09 08:59:26;;;;;;;13.75;5.82;;;1.70;99.90;;;;;;5047957;28;20416;-80
2021/12/09 09:01:52;;;;;;;12.32;5.82;;;1.70;99.90;;;;;;5046112;28;20045;-80
2021/12/09 09:04:18;;;;;;;19.50;8.23;;;1.80;99.90;;;;;;5047083;28;20052;-80
2021/12/09 09:06:50;;;;;;;17.48;6.75;;;1.80;99.90;;;;;;5029251;28;20041;-80
2021/12/09 09:09:16;;;;;;;13.60;6.35;;;1.80;99.90;;;;;;5029173;28;20045;-80
2021/12/09 09:11:42;;;;;;;14.15;5.95;;;1.80;99.90;;;;;;5028896;28;20037;-80
2021/12/09 09:14:07;;;;;;;8.80;5.32;;;1.90;99.90;;;;;;5046043;28;20044;-80
2021/12/09 09:16:33;;;;;;;11.85;5.85;;;1.90;99.90;;;;;;5044382;28;20120;-79
2021/12/09 09:18:58;;;;;;;10.35;5.78;;;2.10;99.90;;;;;;5044045;28;20040;-79
2021/12/09 09:21:25;;;;;;;11.50;6.47;;;2.40;99.90;;;;;;5043886;28;20496;-80
2021/12/09 09:23:51;;;;;;;15.10;6.93;;;2.70;99.90;;;;;;5043583;28;20439;-80
2021/12/09 09:26:17;;;;;;;13.00;5.70;;;3.00;99.90;;;;;;5043015;28;20391;-80
2021/12/09 09:28:43;;;;;;;14.50;6.15;;;3.10;99.90;;;;;;5042948;28;20041;-80
2021/12/09 09:31:09;;;;;;;17.15;5.38;;;3.30;99.90;;;;;;5041956;28;20048;-80
2021/12/09 09:33:34;;;;;;;16.70;6.18;;;3.50;99.90;;;;;;5025699;28;20093;-80
2021/12/09 09:36:00;;;;;;;10.98;4.72;;;3.60;99.90;;;;;;5025736;28;20037;-79
2021/12/09 09:38:26;;;;;;;13.05;4.80;;;3.70;99.90;;;;;;5043166;28;20037;-80
2021/12/09 09:41:13;;;;;;;10.38;5.28;;;3.80;99.90;;;;;;5042389;28;20083;-80
2021/12/09 09:46:14;;;;;;;10.17;4.60;;;4.20;99.90;;;;;;5042343;28;20458;-80
2021/12/09 09:48:42;;;;;;;14.38;3.97;;;4.20;99.90;;;;;;5024840;28;20302;-80
2021/12/09 09:51:09;;;;;;;10.95;5.38;;;4.20;99.90;;;;;;5025531;28;20110;-79
2021/12/09 09:53:37;;;;;;;10.88;4.50;;;4.00;99.90;;;;;;5043406;28;20041;-80
2021/12/09 09:56:08;;;;;;;11.38;5.20;;;3.80;99.90;;;;;;5042294;28;20045;-80
2021/12/09 09:58:34;;;;;;;12.75;4.82;;;3.50;99.90;;;;;;5024611;28;20033;-79
2021/12/09 10:01:00;;;;;;;12.73;5.35;;;3.30;99.90;;;;;;5029167;28;20049;-79
2021/12/09 10:03:30;;;;;;;11.52;4.72;;;3.10;99.90;;;;;;5045973;28;20060;-79
2021/12/09 10:05:57;;;;;;;13.02;4.28;;;2.90;99.90;;;;;;5062651;28;20029;-79
2021/12/09 10:08:23;;;;;;;10.50;4.43;;;2.90;99.90;;;;;;5069455;28;20072;-82
2021/12/09 10:10:49;;;;;;;7.93;4.00;;;2.80;99.90;;;;;;5036474;28;20040;-81
2021/12/09 10:13:18;;;;;;;12.18;4.60;;;2.80;99.90;;;;;;5037345;28;20086;-82
2021/12/09 10:15:51;;;;;;;8.65;4.28;;;2.70;99.90;;;;;;5037157;28;20045;-81
2021/12/09 10:18:37;;;;;;;10.63;4.82;;;2.70;99.90;;;;;;5021116;28;20037;-81
2021/12/09 10:21:05;;;;;;;8.38;4.35;;;2.70;99.90;;;;;;5037080;28;20405;-82
2021/12/09 10:23:39;;;;;;;12.20;4.68;;;2.80;99.90;;;;;;5037694;28;20037;-81
2021/12/09 10:26:21;;;;;;;8.32;4.20;;;2.70;99.90;;;;;;5020193;28;20151;-81
2021/12/09 10:29:06;;;;;;;7.60;4.07;;;2.80;99.90;;;;;;5036825;28;20059;-81
2021/12/09 10:31:43;;;;;;;12.57;4.35;;;2.80;99.90;;;;;;5036317;28;20076;-82
2021/12/09 10:34:32;;;;;;;13.80;4.43;;;2.80;99.90;;;;;;5036537;28;20041;-81
2021/12/09 10:37:01;;;;;;;9.48;3.90;;;2.80;99.90;;;;;;5036756;28;20041;-82
2021/12/09 10:39:32;;;;;;;10.75;4.85;;;2.90;99.90;;;;;;5019764;28;20037;-82
2021/12/09 10:42:00;;;;;;;15.70;4.57;;;2.90;99.90;;;;;;5037371;28;20514;-81
2021/12/09 10:44:41;;;;;;;7.95;4.43;;;3.00;99.90;;;;;;5020574;28;20423;-82
2021/12/09 10:47:13;;;;;;;13.57;4.65;;;3.00;99.90;;;;;;5037179;28;20041;-81
2021/12/09 10:50:06;;;;;;;12.77;4.43;;;3.10;99.90;;;;;;5020489;28;20042;-83
2021/12/09 10:52:38;;;;;;;8.93;4.22;;;3.10;99.90;;;;;;5037644;28;20143;-82
2021/12/09 10:55:10;;;;;;;10.95;4.45;;;3.10;99.90;;;;;;5038322;28;20044;-82
2021/12/09 10:57:36;;;;;;;12.82;5.20;;;3.20;99.90;;;;;;5039273;28;20396;-81
2021/12/09 11:00:22;;;;;;;11.73;4.35;;;3.30;99.90;;;;;;5021199;28;20048;-81
2021/12/09 11:03:07;;;;;;;9.23;5.88;;;3.30;99.90;;;;;;5038838;28;20032;-80
2021/12/09 11:05:37;;;;;;;11.10;5.30;;;3.30;99.90;;;;;;5038589;28;20559;-82
2021/12/09 11:08:21;;;;;;;9.10;4.80;;;3.40;99.90;;;;;;5038527;28;20091;-81
2021/12/09 11:10:49;;;;;;;9.18;4.63;;;3.40;99.90;;;;;;5037264;28;20381;-82
2021/12/09 11:13:21;;;;;;;11.57;4.75;;;3.50;99.90;;;;;;5020437;28;20067;-81
2021/12/09 11:15:56;;;;;;;16.10;6.15;;;3.50;99.90;;;;;;5038753;28;20527;-82
2021/12/09 11:18:37;;;;;;;11.18;5.78;;;3.50;99.90;;;;;;5021590;28;20036;-82
2021/12/09 11:21:07;;;;;;;17.55;5.28;;;3.50;99.90;;;;;;5039985;28;20052;-81
2021/12/09 11:23:41;;;;;;;19.42;5.82;;;3.40;99.90;;;;;;5038035;28;20044;-82
2021/12/09 11:26:32;;;;;;;16.15;6.50;;;3.40;99.90;;;;;;5036695;28;20080;-82
2021/12/09 11:29:07;;;;;;;14.05;6.53;;;3.40;99.90;;;;;;5036807;28;20435;-82
2021/12/09 11:31:42;;;;;;;15.93;6.75;;;3.30;99.90;;;;;;5038648;28;20067;-81
2021/12/09 11:34:14;;;;;;;14.95;6.20;;;3.40;99.90;;;;;;5055615;28;20511;-82
2021/12/09 11:36:55;;;;;;;14.80;5.93;;;3.30;99.90;;;;;;5021800;28;20045;-82
2021/12/09 11:39:29;;;;;;;12.05;6.40;;;3.30;99.90;;;;;;5036497;28;20049;-82
2021/12/09 11:42:04;;;;;;;19.25;6.32;;;3.30;99.90;;;;;;5036546;28;20045;-82
2021/12/09 11:44:32;;;;;;;11.60;5.97;;;3.30;99.90;;;;;;5036330;28;20049;-82
2021/12/09 11:46:58;;;;;;;18.90;6.97;;;3.30;99.90;;;;;;5035754;28;20056;-82
2021/12/09 11:49:24;;;;;;;18.88;7.50;;;3.20;99.90;;;;;;5035370;28;20037;-82
2021/12/09 11:51:49;;;;;;;13.93;6.85;;;3.20;99.90;;;;;;5020592;28;20114;-82
2021/12/09 11:54:16;;;;;;;9.55;5.95;;;3.30;99.90;;;;;;5037994;28;20095;-81
2021/12/09 11:57:14;;;;;;;16.30;7.63;;;3.30;99.90;;;;;;5022214;28;20197;-81
2021/12/09 12:11:29;;;;;;;13.38;6.63;;;3.40;99.90;;;;;;5038810;28;20095;-82
2021/12/09 12:14:04;;;;;;;16.73;8.00;;;3.40;99.90;;;;;;5036500;28;20049;-82
2021/12/09 12:17:05;;;;;;;20.30;7.00;;;3.50;99.90;;;;;;5034360;28;20045;-78
2021/12/09 12:23:12;;;;;;;18.55;7.50;;;3.50;99.90;;;;;;5040649;28;20519;-78
2021/12/09 12:26:00;;;;;;;18.75;7.70;;;3.60;99.90;;;;;;5040220;28;20077;-78
2021/12/09 12:28:56;;;;;;;14.73;7.40;;;3.60;99.90;;;;;;5040500;28;20499;-78
2021/12/09 12:38:30;;;;;;;27.15;8.65;;;3.60;99.90;;;;;;5040218;28;20055;-78
2021/12/09 12:41:11;;;;;;;23.15;8.57;;;3.70;99.90;;;;;;5040033;28;20036;-78
2021/12/09 12:44:04;;;;;;;19.92;7.85;;;3.70;99.90;;;;;;5040311;28;20162;-78
2021/12/09 12:46:45;;;;;;;19.75;9.25;;;3.70;99.90;;;;;;5023715;28;20044;-78
2021/12/09 12:49:28;;;;;;;21.25;8.50;;;3.70;99.90;;;;;;5040215;28;20442;-78
2021/12/09 12:52:08;;;;;;;20.35;7.43;;;3.80;99.90;;;;;;5040625;28;20057;-78
2021/12/09 12:54:47;;;;;;;25.35;8.82;;;3.80;99.90;;;;;;5023754;28;20127;-78
2021/12/09 12:57:29;;;;;;;23.83;8.40;;;3.80;99.90;;;;;;5040260;28;20045;-78
2021/12/09 13:00:10;;;;;;;19.48;9.25;;;3.90;99.90;;;;;;5039842;28;20079;-78
2021/12/09 13:03:07;;;;;;;22.10;8.85;;;3.90;99.90;;;;;;5023516;28;20087;-78
2021/12/09 13:06:11;;;;;;;20.55;8.50;;;4.00;99.90;;;;;;5040508;28;20384;-78
2021/12/09 13:08:56;;;;;;;22.98;9.75;;;4.00;99.90;;;;;;5040056;28;20389;-78
2021/12/09 13:11:45;;;;;;;16.75;7.32;;;3.90;99.90;;;;;;5027110;28;20382;-82
2021/12/09 13:14:19;;;;;;;19.33;7.95;;;3.90;99.90;;;;;;5042546;28;20044;-81
2021/12/09 13:17:01;;;;;;;16.52;7.50;;;3.90;99.90;;;;;;5027960;28;20098;-82
2021/12/09 13:22:11;;;;;;;18.23;8.05;;;3.90;99.90;;;;;;5043933;28;20110;-81
2021/12/09 13:24:53;;;;;;;19.23;8.55;;;3.90;99.90;;;;;;5043129;28;20052;-82
2021/12/09 13:54:24;;;;;;;16.48;7.03;;;3.90;99.90;;;;;;5036512;28;20060;-78
2021/12/09 13:56:59;;;;;;;16.23;7.40;;;3.90;99.90;;;;;;5036607;28;20098;-78
2021/12/09 13:59:28;;;;;;;15.45;7.38;;;3.90;99.90;;;;;;5036314;28;20037;-79